sensor_id;sensor_type;location;lat;lon;timestamp;P1;durP1;ratioP1;P2;durP2;ratioP2
10389;SDS011;5241;47.830;12.972;2023-12-07T00:02:11;7.53;;;4.93;;
10389;SDS011;5241;47.830;12.972;2023-12-07T00:04:38;11.80;;;4.87;;
10389;SDS011;5241;47.830;12.972;2023-12-07T00:07:03;11.20;;;5.60;;
10389;SDS011;5241;47.830;12.972;2023-12-07T00:09:29;9.47;;;5.40;;
10389;SDS011;5241;47.830;12.972;2023-12-07T00:11:54;9.07;;;4.73;;
10389;SDS011;5241;47.830;12.972;2023-12-07T00:14:20;8.23;;;4.83;;
10389;SDS011;5241;47.830;12.972;2023-12-07T00:16:46;9.50;;;5.20;;
10389;SDS011;5241;47.830;12.972;2023-12-07T00:19:11;9.03;;;4.87;;
10389;SDS011;5241;47.830;12.972;2023-12-07T00:21:37;8.13;;;4.07;;
10389;SDS011;5241;47.830;12.972;2023-12-07T00:24:03;7.00;;;4.23;;
10389;SDS011;5241;47.830;12.972;2023-12-07T00:26:29;10.50;;;5.03;;
10389;SDS011;5241;47.830;12.972;2023-12-07T00:28:54;6.43;;;3.73;;
10389;SDS011;5241;47.830;12.972;2023-12-07T00:31:20;7.97;;;4.20;;
10389;SDS011;5241;47.830;12.972;2023-12-07T00:33:46;8.27;;;4.43;;
10389;SDS011;5241;47.830;12.972;2023-12-07T00:36:11;8.30;;;3.77;;
10389;SDS011;5241;47.830;12.972;2023-12-07T00:38:37;7.37;;;4.03;;
10389;SDS011;5241;47.830;12.972;2023-12-07T00:41:03;7.93;;;4.40;;
10389;SDS011;5241;47.830;12.972;2023-12-07T00:43:28;8.80;;;4.07;;
10389;SDS011;5241;47.830;12.972;2023-12-07T00:45:54;5.77;;;3.60;;
10389;SDS011;5241;47.830;12.972;2023-12-07T00:48:20;7.53;;;3.90;;
10389;SDS011;5241;47.830;12.972;2023-12-07T00:50:45;7.77;;;4.07;;
10389;SDS011;5241;47.830;12.972;2023-12-07T00:53:11;7.90;;;4.43;;
10389;SDS011;5241;47.830;12.972;2023-12-07T00:55:37;6.90;;;3.77;;
10389;SDS011;5241;47.830;12.972;2023-12-07T00:58:02;5.57;;;3.27;;
10389;SDS011;5241;47.830;12.972;2023-12-07T01:00:28;5.20;;;3.27;;
10389;SDS011;5241;47.830;12.972;2023-12-07T01:02:53;5.97;;;3.73;;
10389;SDS011;5241;47.830;12.972;2023-12-07T01:05:19;8.13;;;3.63;;
10389;SDS011;5241;47.830;12.972;2023-12-07T01:07:44;7.13;;;3.67;;
10389;SDS011;5241;47.830;12.972;2023-12-07T01:10:10;7.60;;;4.80;;
10389;SDS011;5241;47.830;12.972;2023-12-07T01:12:35;6.63;;;4.20;;
10389;SDS011;5241;47.830;12.972;2023-12-07T01:15:01;6.17;;;3.50;;
10389;SDS011;5241;47.830;12.972;2023-12-07T01:17:26;7.40;;;3.77;;
10389;SDS011;5241;47.830;12.972;2023-12-07T01:19:52;8.90;;;4.60;;
10389;SDS011;5241;47.830;12.972;2023-12-07T01:22:18;6.80;;;3.80;;
10389;SDS011;5241;47.830;12.972;2023-12-07T01:24:43;8.20;;;4.23;;
10389;SDS011;5241;47.830;12.972;2023-12-07T01:27:09;6.57;;;4.13;;
10389;SDS011;5241;47.830;12.972;2023-12-07T01:29:34;5.90;;;3.70;;
10389;SDS011;5241;47.830;12.972;2023-12-07T01:32:00;8.57;;;4.40;;
10389;SDS011;5241;47.830;12.972;2023-12-07T01:34:25;5.43;;;3.47;;
10389;SDS011;5241;47.830;12.972;2023-12-07T01:36:51;6.37;;;3.30;;
10389;SDS011;5241;47.830;12.972;2023-12-07T01:39:16;6.33;;;3.20;;
10389;SDS011;5241;47.830;12.972;2023-12-07T01:41:42;6.43;;;3.50;;
10389;SDS011;5241;47.830;12.972;2023-12-07T01:44:08;6.93;;;3.70;;
10389;SDS011;5241;47.830;12.972;2023-12-07T01:46:34;6.23;;;3.60;;
10389;SDS011;5241;47.830;12.972;2023-12-07T01:49:00;4.57;;;3.07;;
10389;SDS011;5241;47.830;12.972;2023-12-07T01:51:26;8.80;;;3.97;;
10389;SDS011;5241;47.830;12.972;2023-12-07T01:53:52;5.97;;;3.33;;
10389;SDS011;5241;47.830;12.972;2023-12-07T01:56:17;7.00;;;3.20;;
10389;SDS011;5241;47.830;12.972;2023-12-07T01:58:43;9.30;;;4.43;;
10389;SDS011;5241;47.830;12.972;2023-12-07T02:01:09;4.67;;;3.00;;
10389;SDS011;5241;47.830;12.972;2023-12-07T02:03:37;5.07;;;3.20;;
10389;SDS011;5241;47.830;12.972;2023-12-07T02:06:05;6.63;;;3.97;;
10389;SDS011;5241;47.830;12.972;2023-12-07T02:08:31;7.80;;;3.63;;
10389;SDS011;5241;47.830;12.972;2023-12-07T02:10:56;7.33;;;3.93;;
10389;SDS011;5241;47.830;12.972;2023-12-07T02:13:22;6.23;;;3.63;;
10389;SDS011;5241;47.830;12.972;2023-12-07T02:15:48;5.10;;;3.27;;
10389;SDS011;5241;47.830;12.972;2023-12-07T02:21:12;9.03;;;3.67;;
10389;SDS011;5241;47.830;12.972;2023-12-07T02:23:43;6.10;;;3.60;;
10389;SDS011;5241;47.830;12.972;2023-12-07T02:26:11;6.20;;;3.63;;
10389;SDS011;5241;47.830;12.972;2023-12-07T02:28:43;6.93;;;3.50;;
10389;SDS011;5241;47.830;12.972;2023-12-07T02:31:08;6.97;;;3.47;;
10389;SDS011;5241;47.830;12.972;2023-12-07T02:33:34;7.53;;;3.80;;
10389;SDS011;5241;47.830;12.972;2023-12-07T02:36:00;6.73;;;3.93;;
10389;SDS011;5241;47.830;12.972;2023-12-07T02:38:26;6.03;;;3.97;;
10389;SDS011;5241;47.830;12.972;2023-12-07T02:40:53;5.53;;;3.50;;
10389;SDS011;5241;47.830;12.972;2023-12-07T02:43:20;5.20;;;3.33;;
10389;SDS011;5241;47.830;12.972;2023-12-07T02:45:46;6.30;;;3.43;;
10389;SDS011;5241;47.830;12.972;2023-12-07T02:48:13;5.83;;;3.53;;
10389;SDS011;5241;47.830;12.972;2023-12-07T02:50:38;5.60;;;3.60;;
10389;SDS011;5241;47.830;12.972;2023-12-07T02:53:04;6.80;;;3.80;;
10389;SDS011;5241;47.830;12.972;2023-12-07T02:55:30;7.77;;;4.20;;
10389;SDS011;5241;47.830;12.972;2023-12-07T02:57:55;8.70;;;3.93;;
10389;SDS011;5241;47.830;12.972;2023-12-07T03:00:21;7.23;;;4.07;;
10389;SDS011;5241;47.830;12.972;2023-12-07T03:02:46;11.37;;;5.20;;
10389;SDS011;5241;47.830;12.972;2023-12-07T03:05:13;6.83;;;3.60;;
10389;SDS011;5241;47.830;12.972;2023-12-07T03:07:38;5.93;;;3.60;;
10389;SDS011;5241;47.830;12.972;2023-12-07T03:10:04;8.57;;;4.17;;
10389;SDS011;5241;47.830;12.972;2023-12-07T03:12:30;11.80;;;4.97;;
10389;SDS011;5241;47.830;12.972;2023-12-07T03:14:56;6.93;;;4.30;;
10389;SDS011;5241;47.830;12.972;2023-12-07T03:17:21;9.03;;;4.67;;
10389;SDS011;5241;47.830;12.972;2023-12-07T03:19:47;7.93;;;4.47;;
10389;SDS011;5241;47.830;12.972;2023-12-07T03:22:12;5.40;;;3.83;;
10389;SDS011;5241;47.830;12.972;2023-12-07T03:24:38;8.27;;;3.67;;
10389;SDS011;5241;47.830;12.972;2023-12-07T03:27:05;8.87;;;4.47;;
10389;SDS011;5241;47.830;12.972;2023-12-07T03:29:31;9.30;;;4.90;;
10389;SDS011;5241;47.830;12.972;2023-12-07T03:31:57;7.57;;;4.20;;
10389;SDS011;5241;47.830;12.972;2023-12-07T03:34:23;8.50;;;4.40;;
10389;SDS011;5241;47.830;12.972;2023-12-07T03:36:49;10.73;;;4.90;;
10389;SDS011;5241;47.830;12.972;2023-12-07T03:39:15;8.73;;;4.63;;
10389;SDS011;5241;47.830;12.972;2023-12-07T03:41:43;8.00;;;4.10;;
10389;SDS011;5241;47.830;12.972;2023-12-07T03:44:09;8.20;;;4.93;;
10389;SDS011;5241;47.830;12.972;2023-12-07T03:46:35;8.77;;;4.10;;
10389;SDS011;5241;47.830;12.972;2023-12-07T03:49:00;6.83;;;3.93;;
10389;SDS011;5241;47.830;12.972;2023-12-07T03:51:26;8.93;;;4.80;;
10389;SDS011;5241;47.830;12.972;2023-12-07T03:53:52;10.17;;;4.77;;
10389;SDS011;5241;47.830;12.972;2023-12-07T03:56:25;13.37;;;4.70;;
10389;SDS011;5241;47.830;12.972;2023-12-07T03:58:52;9.27;;;4.70;;
10389;SDS011;5241;47.830;12.972;2023-12-07T04:01:17;13.40;;;5.73;;
10389;SDS011;5241;47.830;12.972;2023-12-07T04:03:48;12.37;;;5.70;;
10389;SDS011;5241;47.830;12.972;2023-12-07T04:06:13;9.50;;;4.77;;
10389;SDS011;5241;47.830;12.972;2023-12-07T04:08:39;12.23;;;5.50;;
10389;SDS011;5241;47.830;12.972;2023-12-07T04:11:05;8.60;;;4.37;;
10389;SDS011;5241;47.830;12.972;2023-12-07T04:13:30;9.60;;;5.17;;
10389;SDS011;5241;47.830;12.972;2023-12-07T04:15:56;9.20;;;4.00;;
10389;SDS011;5241;47.830;12.972;2023-12-07T04:18:21;9.17;;;5.23;;
10389;SDS011;5241;47.830;12.972;2023-12-07T04:20:47;9.73;;;5.10;;
10389;SDS011;5241;47.830;12.972;2023-12-07T04:23:12;8.47;;;4.80;;
10389;SDS011;5241;47.830;12.972;2023-12-07T04:25:38;7.40;;;3.70;;
10389;SDS011;5241;47.830;12.972;2023-12-07T04:28:03;9.70;;;5.20;;
10389;SDS011;5241;47.830;12.972;2023-12-07T04:30:29;9.13;;;5.17;;
10389;SDS011;5241;47.830;12.972;2023-12-07T04:32:55;8.80;;;4.77;;
10389;SDS011;5241;47.830;12.972;2023-12-07T04:35:20;8.27;;;4.03;;
10389;SDS011;5241;47.830;12.972;2023-12-07T04:37:46;12.33;;;4.23;;
10389;SDS011;5241;47.830;12.972;2023-12-07T04:40:11;11.20;;;4.13;;
10389;SDS011;5241;47.830;12.972;2023-12-07T04:42:37;11.77;;;5.27;;
10389;SDS011;5241;47.830;12.972;2023-12-07T04:45:02;7.83;;;4.67;;
10389;SDS011;5241;47.830;12.972;2023-12-07T04:47:28;10.73;;;4.60;;
10389;SDS011;5241;47.830;12.972;2023-12-07T04:49:54;9.47;;;5.07;;
10389;SDS011;5241;47.830;12.972;2023-12-07T04:52:20;11.73;;;5.10;;
10389;SDS011;5241;47.830;12.972;2023-12-07T04:54:45;9.93;;;4.23;;
10389;SDS011;5241;47.830;12.972;2023-12-07T04:57:11;8.53;;;4.60;;
10389;SDS011;5241;47.830;12.972;2023-12-07T04:59:36;9.07;;;4.10;;
10389;SDS011;5241;47.830;12.972;2023-12-07T05:02:02;11.17;;;4.90;;
10389;SDS011;5241;47.830;12.972;2023-12-07T05:04:27;13.80;;;6.67;;
10389;SDS011;5241;47.830;12.972;2023-12-07T05:06:53;8.60;;;4.97;;
10389;SDS011;5241;47.830;12.972;2023-12-07T05:09:18;11.00;;;5.07;;
10389;SDS011;5241;47.830;12.972;2023-12-07T05:11:44;12.27;;;5.40;;
10389;SDS011;5241;47.830;12.972;2023-12-07T05:14:10;10.67;;;5.53;;
10389;SDS011;5241;47.830;12.972;2023-12-07T05:16:36;13.73;;;6.07;;
10389;SDS011;5241;47.830;12.972;2023-12-07T05:19:01;10.17;;;5.50;;
10389;SDS011;5241;47.830;12.972;2023-12-07T05:21:27;9.40;;;4.80;;
10389;SDS011;5241;47.830;12.972;2023-12-07T05:23:53;9.07;;;4.97;;
10389;SDS011;5241;47.830;12.972;2023-12-07T05:26:19;9.43;;;4.50;;
10389;SDS011;5241;47.830;12.972;2023-12-07T05:28:46;9.17;;;4.53;;
10389;SDS011;5241;47.830;12.972;2023-12-07T05:31:17;10.23;;;4.63;;
10389;SDS011;5241;47.830;12.972;2023-12-07T05:33:43;12.40;;;5.30;;
10389;SDS011;5241;47.830;12.972;2023-12-07T05:36:09;11.27;;;5.03;;
10389;SDS011;5241;47.830;12.972;2023-12-07T05:38:35;12.87;;;5.60;;
10389;SDS011;5241;47.830;12.972;2023-12-07T05:41:00;7.83;;;4.97;;
10389;SDS011;5241;47.830;12.972;2023-12-07T05:43:26;10.30;;;4.87;;
10389;SDS011;5241;47.830;12.972;2023-12-07T05:45:52;16.27;;;6.10;;
10389;SDS011;5241;47.830;12.972;2023-12-07T05:48:17;12.40;;;5.73;;
10389;SDS011;5241;47.830;12.972;2023-12-07T05:50:43;11.83;;;5.63;;
10389;SDS011;5241;47.830;12.972;2023-12-07T05:53:08;13.23;;;6.03;;
10389;SDS011;5241;47.830;12.972;2023-12-07T05:55:34;12.73;;;5.50;;
10389;SDS011;5241;47.830;12.972;2023-12-07T05:57:59;17.60;;;7.07;;
10389;SDS011;5241;47.830;12.972;2023-12-07T06:00:25;15.53;;;6.10;;
10389;SDS011;5241;47.830;12.972;2023-12-07T06:02:51;13.10;;;5.67;;
10389;SDS011;5241;47.830;12.972;2023-12-07T06:05:16;18.07;;;6.67;;
10389;SDS011;5241;47.830;12.972;2023-12-07T06:07:42;14.27;;;5.53;;
10389;SDS011;5241;47.830;12.972;2023-12-07T06:10:08;14.77;;;5.73;;
10389;SDS011;5241;47.830;12.972;2023-12-07T06:12:34;8.83;;;5.07;;
10389;SDS011;5241;47.830;12.972;2023-12-07T06:15:00;13.40;;;5.80;;
10389;SDS011;5241;47.830;12.972;2023-12-07T06:17:25;13.50;;;6.77;;
10389;SDS011;5241;47.830;12.972;2023-12-07T06:19:51;11.23;;;5.50;;
10389;SDS011;5241;47.830;12.972;2023-12-07T06:22:16;13.13;;;6.17;;
10389;SDS011;5241;47.830;12.972;2023-12-07T06:24:42;13.37;;;6.47;;
10389;SDS011;5241;47.830;12.972;2023-12-07T06:27:07;11.93;;;6.03;;
10389;SDS011;5241;47.830;12.972;2023-12-07T06:29:34;16.07;;;6.23;;
10389;SDS011;5241;47.830;12.972;2023-12-07T06:32:00;14.10;;;7.10;;
10389;SDS011;5241;47.830;12.972;2023-12-07T06:34:26;14.27;;;7.43;;
10389;SDS011;5241;47.830;12.972;2023-12-07T06:36:53;15.43;;;6.50;;
10389;SDS011;5241;47.830;12.972;2023-12-07T06:39:18;16.10;;;7.13;;
10389;SDS011;5241;47.830;12.972;2023-12-07T06:41:44;16.80;;;6.70;;
10389;SDS011;5241;47.830;12.972;2023-12-07T06:44:09;15.73;;;6.73;;
10389;SDS011;5241;47.830;12.972;2023-12-07T06:46:35;13.37;;;6.20;;
10389;SDS011;5241;47.830;12.972;2023-12-07T06:49:00;13.67;;;6.20;;
10389;SDS011;5241;47.830;12.972;2023-12-07T06:51:26;14.60;;;6.23;;
10389;SDS011;5241;47.830;12.972;2023-12-07T06:53:51;12.77;;;6.40;;
10389;SDS011;5241;47.830;12.972;2023-12-07T06:56:17;17.13;;;7.13;;
10389;SDS011;5241;47.830;12.972;2023-12-07T06:58:42;13.07;;;6.37;;
10389;SDS011;5241;47.830;12.972;2023-12-07T07:01:08;14.87;;;6.07;;
10389;SDS011;5241;47.830;12.972;2023-12-07T07:03:34;13.53;;;5.67;;
10389;SDS011;5241;47.830;12.972;2023-12-07T07:06:00;12.20;;;5.83;;
10389;SDS011;5241;47.830;12.972;2023-12-07T07:08:26;15.27;;;6.23;;
10389;SDS011;5241;47.830;12.972;2023-12-07T07:10:51;12.03;;;6.30;;
10389;SDS011;5241;47.830;12.972;2023-12-07T07:13:17;17.30;;;7.80;;
10389;SDS011;5241;47.830;12.972;2023-12-07T07:15:44;15.87;;;7.83;;
10389;SDS011;5241;47.830;12.972;2023-12-07T07:18:10;17.60;;;7.93;;
10389;SDS011;5241;47.830;12.972;2023-12-07T07:20:35;16.63;;;8.37;;
10389;SDS011;5241;47.830;12.972;2023-12-07T07:23:01;17.10;;;8.80;;
10389;SDS011;5241;47.830;12.972;2023-12-07T07:25:26;16.33;;;7.43;;
10389;SDS011;5241;47.830;12.972;2023-12-07T07:27:52;16.00;;;7.43;;
10389;SDS011;5241;47.830;12.972;2023-12-07T07:30:19;18.77;;;7.57;;
10389;SDS011;5241;47.830;12.972;2023-12-07T07:32:45;13.77;;;6.97;;
10389;SDS011;5241;47.830;12.972;2023-12-07T07:35:11;16.17;;;8.10;;
10389;SDS011;5241;47.830;12.972;2023-12-07T07:37:37;18.87;;;8.53;;
10389;SDS011;5241;47.830;12.972;2023-12-07T07:40:06;16.17;;;7.90;;
10389;SDS011;5241;47.830;12.972;2023-12-07T07:42:33;17.03;;;8.10;;
10389;SDS011;5241;47.830;12.972;2023-12-07T07:44:58;15.40;;;8.10;;
10389;SDS011;5241;47.830;12.972;2023-12-07T07:47:24;17.37;;;7.80;;
10389;SDS011;5241;47.830;12.972;2023-12-07T07:49:49;16.20;;;8.40;;
10389;SDS011;5241;47.830;12.972;2023-12-07T07:52:15;18.83;;;8.20;;
10389;SDS011;5241;47.830;12.972;2023-12-07T07:54:41;21.33;;;9.20;;
10389;SDS011;5241;47.830;12.972;2023-12-07T07:57:07;21.17;;;9.23;;
10389;SDS011;5241;47.830;12.972;2023-12-07T07:59:32;15.33;;;8.23;;
10389;SDS011;5241;47.830;12.972;2023-12-07T08:01:58;27.80;;;10.53;;
10389;SDS011;5241;47.830;12.972;2023-12-07T08:04:23;21.73;;;10.13;;
10389;SDS011;5241;47.830;12.972;2023-12-07T08:06:49;21.07;;;10.33;;
10389;SDS011;5241;47.830;12.972;2023-12-07T08:09:14;18.43;;;9.07;;
10389;SDS011;5241;47.830;12.972;2023-12-07T08:11:40;17.57;;;8.87;;
10389;SDS011;5241;47.830;12.972;2023-12-07T08:14:06;15.73;;;7.57;;
10389;SDS011;5241;47.830;12.972;2023-12-07T08:16:31;15.90;;;7.27;;
10389;SDS011;5241;47.830;12.972;2023-12-07T08:18:57;14.07;;;6.83;;
10389;SDS011;5241;47.830;12.972;2023-12-07T08:21:23;15.13;;;7.73;;
10389;SDS011;5241;47.830;12.972;2023-12-07T08:23:50;14.83;;;6.57;;
10389;SDS011;5241;47.830;12.972;2023-12-07T08:26:16;12.07;;;6.23;;
10389;SDS011;5241;47.830;12.972;2023-12-07T08:28:42;10.93;;;5.50;;
10389;SDS011;5241;47.830;12.972;2023-12-07T08:31:07;12.70;;;6.10;;
10389;SDS011;5241;47.830;12.972;2023-12-07T08:33:33;15.97;;;7.83;;
10389;SDS011;5241;47.830;12.972;2023-12-07T08:35:59;15.70;;;8.43;;
10389;SDS011;5241;47.830;12.972;2023-12-07T08:38:25;14.37;;;7.13;;
10389;SDS011;5241;47.830;12.972;2023-12-07T08:40:51;17.03;;;8.50;;
10389;SDS011;5241;47.830;12.972;2023-12-07T08:43:20;14.10;;;7.60;;
10389;SDS011;5241;47.830;12.972;2023-12-07T08:45:48;22.37;;;8.90;;
10389;SDS011;5241;47.830;12.972;2023-12-07T08:48:14;17.63;;;8.80;;
10389;SDS011;5241;47.830;12.972;2023-12-07T08:50:39;20.10;;;9.00;;
10389;SDS011;5241;47.830;12.972;2023-12-07T08:53:05;17.87;;;9.40;;
10389;SDS011;5241;47.830;12.972;2023-12-07T08:55:31;19.97;;;9.43;;
10389;SDS011;5241;47.830;12.972;2023-12-07T08:57:57;21.93;;;9.43;;
10389;SDS011;5241;47.830;12.972;2023-12-07T09:00:22;16.83;;;9.37;;
10389;SDS011;5241;47.830;12.972;2023-12-07T09:02:50;14.67;;;8.10;;
10389;SDS011;5241;47.830;12.972;2023-12-07T09:05:16;15.30;;;7.40;;
10389;SDS011;5241;47.830;12.972;2023-12-07T09:07:42;15.97;;;7.10;;
10389;SDS011;5241;47.830;12.972;2023-12-07T09:10:08;11.00;;;5.97;;
10389;SDS011;5241;47.830;12.972;2023-12-07T09:12:34;10.03;;;5.83;;
10389;SDS011;5241;47.830;12.972;2023-12-07T09:15:03;12.67;;;7.10;;
10389;SDS011;5241;47.830;12.972;2023-12-07T09:17:29;10.13;;;6.13;;
10389;SDS011;5241;47.830;12.972;2023-12-07T09:19:54;9.73;;;4.77;;
10389;SDS011;5241;47.830;12.972;2023-12-07T09:22:20;10.63;;;4.57;;
10389;SDS011;5241;47.830;12.972;2023-12-07T09:24:46;8.60;;;4.90;;
10389;SDS011;5241;47.830;12.972;2023-12-07T09:27:15;7.93;;;3.73;;
10389;SDS011;5241;47.830;12.972;2023-12-07T09:29:40;13.03;;;6.97;;
10389;SDS011;5241;47.830;12.972;2023-12-07T09:32:07;11.27;;;6.20;;
10389;SDS011;5241;47.830;12.972;2023-12-07T09:34:32;11.17;;;6.10;;
10389;SDS011;5241;47.830;12.972;2023-12-07T09:37:07;10.60;;;6.33;;
10389;SDS011;5241;47.830;12.972;2023-12-07T09:39:34;17.30;;;8.60;;
10389;SDS011;5241;47.830;12.972;2023-12-07T09:41:59;16.80;;;8.50;;
10389;SDS011;5241;47.830;12.972;2023-12-07T09:44:26;14.70;;;7.33;;
10389;SDS011;5241;47.830;12.972;2023-12-07T09:46:51;11.13;;;5.53;;
10389;SDS011;5241;47.830;12.972;2023-12-07T09:49:17;12.57;;;5.83;;
10389;SDS011;5241;47.830;12.972;2023-12-07T09:51:43;9.13;;;5.20;;
10389;SDS011;5241;47.830;12.972;2023-12-07T09:54:11;11.83;;;4.53;;
10389;SDS011;5241;47.830;12.972;2023-12-07T09:56:36;9.10;;;4.80;;
10389;SDS011;5241;47.830;12.972;2023-12-07T09:59:02;9.20;;;4.90;;
10389;SDS011;5241;47.830;12.972;2023-12-07T10:01:29;7.33;;;4.37;;
10389;SDS011;5241;47.830;12.972;2023-12-07T10:06:43;10.47;;;4.87;;
10389;SDS011;5241;47.830;12.972;2023-12-07T10:09:10;7.83;;;4.43;;
10389;SDS011;5241;47.830;12.972;2023-12-07T10:11:36;9.17;;;5.77;;
10389;SDS011;5241;47.830;12.972;2023-12-07T10:14:02;8.57;;;4.33;;
10389;SDS011;5241;47.830;12.972;2023-12-07T10:16:27;11.47;;;5.93;;
10389;SDS011;5241;47.830;12.972;2023-12-07T10:18:53;7.90;;;5.47;;
10389;SDS011;5241;47.830;12.972;2023-12-07T10:21:31;9.30;;;5.03;;
10389;SDS011;5241;47.830;12.972;2023-12-07T10:23:57;11.27;;;5.40;;
10389;SDS011;5241;47.830;12.972;2023-12-07T10:26:22;11.10;;;6.00;;
10389;SDS011;5241;47.830;12.972;2023-12-07T10:28:49;8.30;;;5.33;;
10389;SDS011;5241;47.830;12.972;2023-12-07T10:31:18;13.53;;;6.23;;
10389;SDS011;5241;47.830;12.972;2023-12-07T10:33:47;9.40;;;5.30;;
10389;SDS011;5241;47.830;12.972;2023-12-07T10:36:13;11.77;;;6.50;;
10389;SDS011;5241;47.830;12.972;2023-12-07T10:38:39;9.53;;;6.20;;
10389;SDS011;5241;47.830;12.972;2023-12-07T10:41:07;10.63;;;6.57;;
10389;SDS011;5241;47.830;12.972;2023-12-07T10:43:37;11.27;;;6.27;;
10389;SDS011;5241;47.830;12.972;2023-12-07T10:46:08;11.07;;;6.27;;
10389;SDS011;5241;47.830;12.972;2023-12-07T10:48:34;12.43;;;6.47;;
10389;SDS011;5241;47.830;12.972;2023-12-07T10:51:02;11.80;;;6.97;;
10389;SDS011;5241;47.830;12.972;2023-12-07T10:53:34;13.53;;;5.93;;
10389;SDS011;5241;47.830;12.972;2023-12-07T10:56:05;10.57;;;5.87;;
10389;SDS011;5241;47.830;12.972;2023-12-07T10:58:36;10.13;;;5.63;;
10389;SDS011;5241;47.830;12.972;2023-12-07T11:01:03;7.53;;;5.03;;
10389;SDS011;5241;47.830;12.972;2023-12-07T11:03:31;10.40;;;5.07;;
10389;SDS011;5241;47.830;12.972;2023-12-07T11:05:58;7.00;;;4.10;;
10389;SDS011;5241;47.830;12.972;2023-12-07T11:08:46;12.40;;;5.77;;
10389;SDS011;5241;47.830;12.972;2023-12-07T11:11:21;10.97;;;6.40;;
10389;SDS011;5241;47.830;12.972;2023-12-07T11:14:05;13.00;;;6.57;;
10389;SDS011;5241;47.830;12.972;2023-12-07T11:16:32;7.90;;;4.97;;
10389;SDS011;5241;47.830;12.972;2023-12-07T11:19:00;7.00;;;4.30;;
10389;SDS011;5241;47.830;12.972;2023-12-07T11:21:26;7.87;;;4.70;;
10389;SDS011;5241;47.830;12.972;2023-12-07T11:23:53;8.87;;;4.90;;
10389;SDS011;5241;47.830;12.972;2023-12-07T11:26:19;8.53;;;4.87;;
10389;SDS011;5241;47.830;12.972;2023-12-07T11:28:47;6.77;;;4.67;;
10389;SDS011;5241;47.830;12.972;2023-12-07T11:31:13;8.27;;;4.90;;
10389;SDS011;5241;47.830;12.972;2023-12-07T11:33:39;8.27;;;4.40;;
10389;SDS011;5241;47.830;12.972;2023-12-07T11:36:07;8.10;;;4.87;;
10389;SDS011;5241;47.830;12.972;2023-12-07T11:38:35;7.60;;;4.20;;
10389;SDS011;5241;47.830;12.972;2023-12-07T11:41:01;10.50;;;5.07;;
10389;SDS011;5241;47.830;12.972;2023-12-07T11:46:02;7.03;;;4.03;;
10389;SDS011;5241;47.830;12.972;2023-12-07T11:48:28;7.50;;;4.63;;
10389;SDS011;5241;47.830;12.972;2023-12-07T11:50:58;6.33;;;3.90;;
10389;SDS011;5241;47.830;12.972;2023-12-07T11:53:29;5.73;;;3.80;;
10389;SDS011;5241;47.830;12.972;2023-12-07T11:55:56;6.00;;;4.03;;
10389;SDS011;5241;47.830;12.972;2023-12-07T11:58:26;6.17;;;4.20;;
10389;SDS011;5241;47.830;12.972;2023-12-07T12:00:53;5.73;;;3.60;;
10389;SDS011;5241;47.830;12.972;2023-12-07T12:03:28;5.40;;;3.30;;
10389;SDS011;5241;47.830;12.972;2023-12-07T12:05:56;6.90;;;3.27;;
10389;SDS011;5241;47.830;12.972;2023-12-07T12:08:21;5.73;;;3.87;;
10389;SDS011;5241;47.830;12.972;2023-12-07T12:10:47;4.33;;;2.70;;
10389;SDS011;5241;47.830;12.972;2023-12-07T12:13:18;3.57;;;2.43;;
10389;SDS011;5241;47.830;12.972;2023-12-07T12:15:44;4.90;;;3.07;;
10389;SDS011;5241;47.830;12.972;2023-12-07T12:18:13;5.70;;;3.50;;
10389;SDS011;5241;47.830;12.972;2023-12-07T12:20:39;5.00;;;2.97;;
10389;SDS011;5241;47.830;12.972;2023-12-07T12:23:05;5.77;;;3.40;;
10389;SDS011;5241;47.830;12.972;2023-12-07T12:25:31;5.73;;;3.43;;
10389;SDS011;5241;47.830;12.972;2023-12-07T12:27:58;4.77;;;3.00;;
10389;SDS011;5241;47.830;12.972;2023-12-07T12:30:28;5.53;;;2.93;;
10389;SDS011;5241;47.830;12.972;2023-12-07T12:32:55;4.53;;;2.87;;
10389;SDS011;5241;47.830;12.972;2023-12-07T12:35:20;4.57;;;3.00;;
10389;SDS011;5241;47.830;12.972;2023-12-07T12:37:47;4.17;;;3.13;;
10389;SDS011;5241;47.830;12.972;2023-12-07T12:40:16;5.33;;;3.23;;
10389;SDS011;5241;47.830;12.972;2023-12-07T12:42:45;3.50;;;2.87;;
10389;SDS011;5241;47.830;12.972;2023-12-07T12:45:12;5.33;;;3.43;;
10389;SDS011;5241;47.830;12.972;2023-12-07T12:47:39;5.13;;;3.53;;
10389;SDS011;5241;47.830;12.972;2023-12-07T12:50:06;4.83;;;3.13;;
10389;SDS011;5241;47.830;12.972;2023-12-07T12:52:32;5.73;;;3.20;;
10389;SDS011;5241;47.830;12.972;2023-12-07T12:54:58;4.33;;;2.80;;
10389;SDS011;5241;47.830;12.972;2023-12-07T12:57:24;5.50;;;3.27;;
10389;SDS011;5241;47.830;12.972;2023-12-07T12:59:50;5.10;;;3.47;;
10389;SDS011;5241;47.830;12.972;2023-12-07T13:02:16;7.87;;;4.67;;
10389;SDS011;5241;47.830;12.972;2023-12-07T13:04:43;9.17;;;3.70;;
10389;SDS011;5241;47.830;12.972;2023-12-07T13:07:10;5.67;;;3.10;;
10389;SDS011;5241;47.830;12.972;2023-12-07T13:09:38;5.07;;;3.00;;
10389;SDS011;5241;47.830;12.972;2023-12-07T13:12:05;5.40;;;3.10;;
10389;SDS011;5241;47.830;12.972;2023-12-07T13:14:30;6.03;;;4.00;;
10389;SDS011;5241;47.830;12.972;2023-12-07T13:17:00;6.07;;;3.80;;
10389;SDS011;5241;47.830;12.972;2023-12-07T13:19:26;4.90;;;3.20;;
10389;SDS011;5241;47.830;12.972;2023-12-07T13:21:51;6.00;;;3.67;;
10389;SDS011;5241;47.830;12.972;2023-12-07T13:24:17;6.20;;;4.00;;
10389;SDS011;5241;47.830;12.972;2023-12-07T13:26:42;5.63;;;3.63;;
10389;SDS011;5241;47.830;12.972;2023-12-07T13:29:08;6.07;;;3.83;;
10389;SDS011;5241;47.830;12.972;2023-12-07T13:31:35;5.60;;;3.47;;
10389;SDS011;5241;47.830;12.972;2023-12-07T13:34:01;4.97;;;3.37;;
10389;SDS011;5241;47.830;12.972;2023-12-07T13:36:26;4.30;;;3.10;;
10389;SDS011;5241;47.830;12.972;2023-12-07T13:38:54;6.87;;;4.47;;
10389;SDS011;5241;47.830;12.972;2023-12-07T13:41:21;7.40;;;3.83;;
10389;SDS011;5241;47.830;12.972;2023-12-07T13:43:47;7.17;;;3.57;;
10389;SDS011;5241;47.830;12.972;2023-12-07T13:46:18;6.57;;;4.20;;
10389;SDS011;5241;47.830;12.972;2023-12-07T13:48:45;10.90;;;5.73;;
10389;SDS011;5241;47.830;12.972;2023-12-07T13:51:11;13.87;;;5.73;;
10389;SDS011;5241;47.830;12.972;2023-12-07T13:53:37;13.50;;;6.00;;
10389;SDS011;5241;47.830;12.972;2023-12-07T13:56:03;8.67;;;4.33;;
10389;SDS011;5241;47.830;12.972;2023-12-07T13:58:29;12.43;;;6.50;;
10389;SDS011;5241;47.830;12.972;2023-12-07T14:00:55;13.47;;;5.90;;
10389;SDS011;5241;47.830;12.972;2023-12-07T14:03:21;6.43;;;4.30;;
10389;SDS011;5241;47.830;12.972;2023-12-07T14:05:46;8.07;;;4.67;;
10389;SDS011;5241;47.830;12.972;2023-12-07T14:08:12;8.93;;;4.73;;
10389;SDS011;5241;47.830;12.972;2023-12-07T14:10:38;10.87;;;5.60;;
10389;SDS011;5241;47.830;12.972;2023-12-07T14:13:03;12.37;;;5.60;;
10389;SDS011;5241;47.830;12.972;2023-12-07T14:15:29;11.93;;;6.00;;
10389;SDS011;5241;47.830;12.972;2023-12-07T14:17:57;8.50;;;5.20;;
10389;SDS011;5241;47.830;12.972;2023-12-07T14:20:24;13.20;;;6.13;;
10389;SDS011;5241;47.830;12.972;2023-12-07T14:22:52;10.33;;;6.00;;
10389;SDS011;5241;47.830;12.972;2023-12-07T14:25:18;8.23;;;4.47;;
10389;SDS011;5241;47.830;12.972;2023-12-07T14:27:44;6.60;;;4.23;;
10389;SDS011;5241;47.830;12.972;2023-12-07T14:30:10;5.50;;;3.90;;
10389;SDS011;5241;47.830;12.972;2023-12-07T14:32:36;6.57;;;3.93;;
10389;SDS011;5241;47.830;12.972;2023-12-07T14:35:01;7.43;;;4.40;;
10389;SDS011;5241;47.830;12.972;2023-12-07T14:37:27;8.30;;;3.87;;
10389;SDS011;5241;47.830;12.972;2023-12-07T14:39:52;7.57;;;4.00;;
10389;SDS011;5241;47.830;12.972;2023-12-07T14:42:18;7.10;;;3.60;;
10389;SDS011;5241;47.830;12.972;2023-12-07T14:44:44;6.50;;;3.43;;